sensor_id;sensor_type;location;lat;lon;timestamp;pressure;altitude;pressure_sealevel;temperature;humidity
11676;BME280;5894;42.768;23.404;2023-03-09T00:02:08;95033.72;;;8.05;91.22
11676;BME280;5894;42.768;23.404;2023-03-09T00:04:39;95028.19;;;8.06;91.10
11676;BME280;5894;42.768;23.404;2023-03-09T00:07:06;95024.78;;;8.06;91.22
11676;BME280;5894;42.768;23.404;2023-03-09T00:09:33;95003.81;;;7.92;91.59
11676;BME280;5894;42.768;23.404;2023-03-09T00:12:00;95007.75;;;8.03;91.01
11676;BME280;5894;42.768;23.404;2023-03-09T00:14:27;94944.72;;;7.59;90.69
11676;BME280;5894;42.768;23.404;2023-03-09T00:16:54;94992.59;;;8.00;90.56
11676;BME280;5894;42.768;23.404;2023-03-09T00:19:21;95016.72;;;8.25;90.36
11676;BME280;5894;42.768;23.404;2023-03-09T00:21:54;95011.47;;;8.25;89.99
11676;BME280;5894;42.768;23.404;2023-03-09T00:24:23;95005.81;;;8.31;89.07
11676;BME280;5894;42.768;23.404;2023-03-09T00:26:53;95002.28;;;8.36;88.46
11676;BME280;5894;42.768;23.404;2023-03-09T00:29:21;94987.41;;;8.31;88.58
11676;BME280;5894;42.768;23.404;2023-03-09T00:31:48;94993.25;;;8.28;89.34
11676;BME280;5894;42.768;23.404;2023-03-09T00:34:16;94993.63;;;8.35;89.10
11676;BME280;5894;42.768;23.404;2023-03-09T00:36:43;94979.34;;;8.28;88.65
11676;BME280;5894;42.768;23.404;2023-03-09T00:39:12;94874.19;;;7.57;88.91
11676;BME280;5894;42.768;23.404;2023-03-09T00:41:40;94990.81;;;8.32;88.92
11676;BME280;5894;42.768;23.404;2023-03-09T00:44:07;94988.19;;;8.32;89.48
11676;BME280;5894;42.768;23.404;2023-03-09T00:46:34;94981.75;;;8.38;88.66
11676;BME280;5894;42.768;23.404;2023-03-09T00:49:03;94977.97;;;8.30;89.52
11676;BME280;5894;42.768;23.404;2023-03-09T00:51:32;94967.75;;;8.29;89.14
11676;BME280;5894;42.768;23.404;2023-03-09T00:53:59;94972.31;;;8.37;88.82
11676;BME280;5894;42.768;23.404;2023-03-09T00:56:28;94940.41;;;7.99;90.39
11676;BME280;5894;42.768;23.404;2023-03-09T00:58:56;94952.97;;;8.10;92.42
11676;BME280;5894;42.768;23.404;2023-03-09T01:01:24;94975.47;;;8.03;93.16
11676;BME280;5894;42.768;23.404;2023-03-09T01:03:51;94975.34;;;8.08;92.99
11676;BME280;5894;42.768;23.404;2023-03-09T01:06:19;94963.78;;;7.87;94.37
11676;BME280;5894;42.768;23.404;2023-03-09T01:08:46;94981.09;;;7.88;95.27
11676;BME280;5894;42.768;23.404;2023-03-09T01:11:14;94987.41;;;7.87;95.23
11676;BME280;5894;42.768;23.404;2023-03-09T01:13:43;94979.94;;;7.80;96.83
11676;BME280;5894;42.768;23.404;2023-03-09T01:16:10;94902.78;;;7.09;99.56
11676;BME280;5894;42.768;23.404;2023-03-09T01:18:37;94950.69;;;7.51;99.37
11676;BME280;5894;42.768;23.404;2023-03-09T01:21:04;94967.25;;;7.60;98.78
11676;BME280;5894;42.768;23.404;2023-03-09T01:23:33;94967.00;;;7.48;99.25
11676;BME280;5894;42.768;23.404;2023-03-09T01:26:01;94955.84;;;7.42;99.70
11676;BME280;5894;42.768;23.404;2023-03-09T01:28:28;94951.25;;;7.48;99.95
11676;BME280;5894;42.768;23.404;2023-03-09T01:30:58;94954.44;;;7.22;100.00
11676;BME280;5894;42.768;23.404;2023-03-09T01:33:25;94909.28;;;7.12;100.00
11676;BME280;5894;42.768;23.404;2023-03-09T01:35:52;94934.47;;;6.99;100.00
11676;BME280;5894;42.768;23.404;2023-03-09T01:38:19;94955.34;;;7.04;100.00
11676;BME280;5894;42.768;23.404;2023-03-09T01:40:46;94940.00;;;6.97;100.00
11676;BME280;5894;42.768;23.404;2023-03-09T01:43:27;94940.47;;;6.99;100.00
11676;BME280;5894;42.768;23.404;2023-03-09T01:46:31;94937.97;;;6.94;100.00
11676;BME280;5894;42.768;23.404;2023-03-09T01:49:03;94927.28;;;6.91;100.00
11676;BME280;5894;42.768;23.404;2023-03-09T01:51:36;94902.38;;;6.52;100.00
11676;BME280;5894;42.768;23.404;2023-03-09T01:54:08;94926.63;;;6.58;100.00
11676;BME280;5894;42.768;23.404;2023-03-09T01:56:39;94927.69;;;6.57;100.00
11676;BME280;5894;42.768;23.404;2023-03-09T01:59:08;94925.06;;;6.43;100.00
11676;BME280;5894;42.768;23.404;2023-03-09T02:01:37;94937.69;;;6.41;100.00
11676;BME280;5894;42.768;23.404;2023-03-09T02:04:09;94932.25;;;6.51;100.00
11676;BME280;5894;42.768;23.404;2023-03-09T02:06:37;94936.28;;;6.44;100.00
11676;BME280;5894;42.768;23.404;2023-03-09T02:09:10;94862.56;;;5.96;100.00
11676;BME280;5894;42.768;23.404;2023-03-09T02:11:39;94933.50;;;6.40;100.00
11676;BME280;5894;42.768;23.404;2023-03-09T02:14:07;94945.06;;;6.53;100.00
11676;BME280;5894;42.768;23.404;2023-03-09T02:16:34;94881.66;;;5.96;100.00
11676;BME280;5894;42.768;23.404;2023-03-09T02:19:03;94948.34;;;6.45;100.00
11676;BME280;5894;42.768;23.404;2023-03-09T02:21:35;94944.47;;;6.56;100.00
11676;BME280;5894;42.768;23.404;2023-03-09T02:24:09;94945.34;;;6.65;100.00
11676;BME280;5894;42.768;23.404;2023-03-09T02:26:41;94949.50;;;6.66;100.00
11676;BME280;5894;42.768;23.404;2023-03-09T02:29:14;94900.22;;;6.27;100.00
11676;BME280;5894;42.768;23.404;2023-03-09T02:31:41;94942.53;;;6.61;100.00
11676;BME280;5894;42.768;23.404;2023-03-09T02:34:10;94969.03;;;6.60;100.00
11676;BME280;5894;42.768;23.404;2023-03-09T02:36:39;94898.88;;;6.30;100.00
11676;BME280;5894;42.768;23.404;2023-03-09T02:39:12;94930.38;;;6.38;100.00
11676;BME280;5894;42.768;23.404;2023-03-09T02:41:41;94949.22;;;6.40;100.00
11676;BME280;5894;42.768;23.404;2023-03-09T02:44:10;94945.72;;;6.58;100.00
11676;BME280;5894;42.768;23.404;2023-03-09T02:46:40;94931.94;;;6.39;100.00
11676;BME280;5894;42.768;23.404;2023-03-09T02:49:07;94971.72;;;6.55;100.00
11676;BME280;5894;42.768;23.404;2023-03-09T02:51:34;94968.69;;;6.34;100.00
11676;BME280;5894;42.768;23.404;2023-03-09T02:54:01;94976.25;;;6.22;100.00
11676;BME280;5894;42.768;23.404;2023-03-09T02:56:28;94967.22;;;6.28;100.00
11676;BME280;5894;42.768;23.404;2023-03-09T02:58:56;94965.09;;;6.30;100.00
11676;BME280;5894;42.768;23.404;2023-03-09T03:01:23;94970.66;;;6.42;100.00
11676;BME280;5894;42.768;23.404;2023-03-09T03:03:51;94963.38;;;6.39;100.00
11676;BME280;5894;42.768;23.404;2023-03-09T03:06:18;94941.91;;;6.23;100.00
11676;BME280;5894;42.768;23.404;2023-03-09T03:08:45;94962.03;;;6.42;100.00
11676;BME280;5894;42.768;23.404;2023-03-09T03:11:12;94959.25;;;6.19;100.00
11676;BME280;5894;42.768;23.404;2023-03-09T03:13:41;94963.19;;;6.03;100.00
11676;BME280;5894;42.768;23.404;2023-03-09T03:16:09;94966.56;;;6.04;100.00
11676;BME280;5894;42.768;23.404;2023-03-09T03:18:36;94983.06;;;6.04;100.00
11676;BME280;5894;42.768;23.404;2023-03-09T03:21:05;94955.44;;;5.98;100.00
11676;BME280;5894;42.768;23.404;2023-03-09T03:23:34;94969.19;;;6.04;100.00
11676;BME280;5894;42.768;23.404;2023-03-09T03:26:05;94958.97;;;5.70;100.00
11676;BME280;5894;42.768;23.404;2023-03-09T03:28:33;94932.31;;;5.68;100.00
11676;BME280;5894;42.768;23.404;2023-03-09T03:31:04;94945.41;;;5.68;100.00
11676;BME280;5894;42.768;23.404;2023-03-09T03:33:31;94921.53;;;5.56;100.00
11676;BME280;5894;42.768;23.404;2023-03-09T03:35:58;94974.13;;;5.92;100.00
11676;BME280;5894;42.768;23.404;2023-03-09T03:38:27;94933.09;;;5.68;100.00
11676;BME280;5894;42.768;23.404;2023-03-09T03:40:53;94979.72;;;6.17;100.00
11676;BME280;5894;42.768;23.404;2023-03-09T03:43:20;94964.84;;;6.13;100.00
11676;BME280;5894;42.768;23.404;2023-03-09T03:45:50;94966.78;;;6.07;100.00
11676;BME280;5894;42.768;23.404;2023-03-09T03:48:17;94989.69;;;6.15;100.00
11676;BME280;5894;42.768;23.404;2023-03-09T03:50:44;94986.34;;;6.29;100.00
11676;BME280;5894;42.768;23.404;2023-03-09T03:53:11;94989.16;;;6.32;100.00
11676;BME280;5894;42.768;23.404;2023-03-09T03:55:39;94941.56;;;5.98;100.00
11676;BME280;5894;42.768;23.404;2023-03-09T03:58:06;94986.34;;;6.29;100.00
11676;BME280;5894;42.768;23.404;2023-03-09T04:00:35;94984.72;;;6.33;100.00
11676;BME280;5894;42.768;23.404;2023-03-09T04:03:07;94980.81;;;6.30;100.00
11676;BME280;5894;42.768;23.404;2023-03-09T04:05:39;94939.63;;;6.03;100.00
11676;BME280;5894;42.768;23.404;2023-03-09T04:08:08;94959.84;;;6.16;100.00
11676;BME280;5894;42.768;23.404;2023-03-09T04:10:37;94978.75;;;6.27;100.00
11676;BME280;5894;42.768;23.404;2023-03-09T04:13:06;94978.09;;;6.35;100.00
11676;BME280;5894;42.768;23.404;2023-03-09T04:15:34;94905.59;;;5.89;100.00
11676;BME280;5894;42.768;23.404;2023-03-09T04:18:01;94970.94;;;6.41;100.00
11676;BME280;5894;42.768;23.404;2023-03-09T04:20:31;94928.88;;;6.05;100.00
11676;BME280;5894;42.768;23.404;2023-03-09T04:22:58;94958.69;;;6.36;100.00
11676;BME280;5894;42.768;23.404;2023-03-09T04:25:26;94977.16;;;6.45;100.00
11676;BME280;5894;42.768;23.404;2023-03-09T04:27:53;94965.03;;;6.49;100.00
11676;BME280;5894;42.768;23.404;2023-03-09T04:30:27;94924.34;;;6.10;100.00
11676;BME280;5894;42.768;23.404;2023-03-09T04:32:57;94963.09;;;6.54;100.00
11676;BME280;5894;42.768;23.404;2023-03-09T04:35:23;94942.69;;;6.38;100.00
11676;BME280;5894;42.768;23.404;2023-03-09T04:37:52;94962.66;;;6.34;100.00
11676;BME280;5894;42.768;23.404;2023-03-09T04:40:20;94950.09;;;6.03;100.00
11676;BME280;5894;42.768;23.404;2023-03-09T04:42:50;94960.81;;;6.20;100.00
11676;BME280;5894;42.768;23.404;2023-03-09T04:45:17;94923.66;;;5.86;100.00
11676;BME280;5894;42.768;23.404;2023-03-09T04:47:47;94939.28;;;6.10;100.00
11676;BME280;5894;42.768;23.404;2023-03-09T04:50:15;94927.03;;;6.05;100.00
11676;BME280;5894;42.768;23.404;2023-03-09T04:52:49;94948.75;;;6.06;100.00
11676;BME280;5894;42.768;23.404;2023-03-09T04:55:17;94926.00;;;5.87;100.00
11676;BME280;5894;42.768;23.404;2023-03-09T04:57:44;94913.06;;;5.77;100.00
11676;BME280;5894;42.768;23.404;2023-03-09T05:00:13;94941.47;;;5.84;100.00
11676;BME280;5894;42.768;23.404;2023-03-09T05:02:40;94955.16;;;6.00;100.00
11676;BME280;5894;42.768;23.404;2023-03-09T05:05:09;94931.00;;;5.84;100.00
11676;BME280;5894;42.768;23.404;2023-03-09T05:07:36;94937.63;;;6.14;100.00
11676;BME280;5894;42.768;23.404;2023-03-09T05:10:07;94947.19;;;6.05;100.00
11676;BME280;5894;42.768;23.404;2023-03-09T05:12:36;94833.50;;;5.32;100.00
11676;BME280;5894;42.768;23.404;2023-03-09T05:15:07;94949.25;;;6.08;100.00
11676;BME280;5894;42.768;23.404;2023-03-09T05:17:35;94945.19;;;6.15;100.00
11676;BME280;5894;42.768;23.404;2023-03-09T05:20:03;94936.44;;;6.06;100.00
11676;BME280;5894;42.768;23.404;2023-03-09T05:22:38;94945.59;;;6.22;100.00
11676;BME280;5894;42.768;23.404;2023-03-09T05:25:08;94943.88;;;6.32;100.00
11676;BME280;5894;42.768;23.404;2023-03-09T05:27:35;94931.53;;;6.18;100.00
11676;BME280;5894;42.768;23.404;2023-03-09T05:30:03;94938.50;;;6.23;100.00
11676;BME280;5894;42.768;23.404;2023-03-09T05:32:32;94938.81;;;5.89;100.00
11676;BME280;5894;42.768;23.404;2023-03-09T05:34:59;94961.94;;;6.14;100.00
11676;BME280;5894;42.768;23.404;2023-03-09T05:37:27;94967.47;;;6.13;100.00
11676;BME280;5894;42.768;23.404;2023-03-09T05:39:58;94933.84;;;5.87;100.00
11676;BME280;5894;42.768;23.404;2023-03-09T05:42:25;94964.66;;;6.09;100.00
11676;BME280;5894;42.768;23.404;2023-03-09T05:44:52;94971.47;;;6.10;100.00
11676;BME280;5894;42.768;23.404;2023-03-09T05:47:19;94960.03;;;6.20;100.00
11676;BME280;5894;42.768;23.404;2023-03-09T05:49:47;94959.88;;;6.30;100.00
11676;BME280;5894;42.768;23.404;2023-03-09T05:52:14;94970.94;;;6.41;100.00
11676;BME280;5894;42.768;23.404;2023-03-09T05:54:42;94961.25;;;6.41;100.00
11676;BME280;5894;42.768;23.404;2023-03-09T05:57:13;94982.03;;;6.51;100.00
11676;BME280;5894;42.768;23.404;2023-03-09T05:59:42;94966.31;;;6.51;100.00
11676;BME280;5894;42.768;23.404;2023-03-09T06:02:09;94985.41;;;6.66;100.00
11676;BME280;5894;42.768;23.404;2023-03-09T06:04:39;94986.13;;;6.71;100.00
11676;BME280;5894;42.768;23.404;2023-03-09T06:07:08;94986.41;;;6.83;100.00
11676;BME280;5894;42.768;23.404;2023-03-09T06:09:39;94993.38;;;6.88;100.00
11676;BME280;5894;42.768;23.404;2023-03-09T06:12:13;94993.41;;;7.02;100.00
11676;BME280;5894;42.768;23.404;2023-03-09T06:14:43;94996.69;;;7.07;100.00
11676;BME280;5894;42.768;23.404;2023-03-09T06:17:10;94932.53;;;6.77;100.00
11676;BME280;5894;42.768;23.404;2023-03-09T06:19:38;94978.31;;;7.21;100.00
11676;BME280;5894;42.768;23.404;2023-03-09T06:22:04;94978.13;;;7.31;100.00
11676;BME280;5894;42.768;23.404;2023-03-09T06:24:33;94961.91;;;7.29;100.00
11676;BME280;5894;42.768;23.404;2023-03-09T06:27:02;94957.50;;;7.38;100.00
11676;BME280;5894;42.768;23.404;2023-03-09T06:29:35;94967.19;;;7.51;100.00
11676;BME280;5894;42.768;23.404;2023-03-09T06:32:02;94968.31;;;7.59;100.00
11676;BME280;5894;42.768;23.404;2023-03-09T06:34:33;94956.41;;;7.53;100.00
11676;BME280;5894;42.768;23.404;2023-03-09T06:37:03;94976.53;;;7.57;100.00
11676;BME280;5894;42.768;23.404;2023-03-09T06:39:31;94977.75;;;7.60;100.00
11676;BME280;5894;42.768;23.404;2023-03-09T06:41:58;94990.50;;;7.53;100.00
11676;BME280;5894;42.768;23.404;2023-03-09T06:44:32;94968.78;;;7.38;100.00
11676;BME280;5894;42.768;23.404;2023-03-09T06:47:01;94973.63;;;7.45;100.00
11676;BME280;5894;42.768;23.404;2023-03-09T06:49:29;94984.78;;;7.51;100.00
11676;BME280;5894;42.768;23.404;2023-03-09T06:51:59;94907.66;;;7.02;100.00
11676;BME280;5894;42.768;23.404;2023-03-09T06:54:27;94976.88;;;7.64;100.00
11676;BME280;5894;42.768;23.404;2023-03-09T06:57:03;94974.34;;;7.59;100.00
11676;BME280;5894;42.768;23.404;2023-03-09T06:59:30;94975.34;;;7.50;100.00
11676;BME280;5894;42.768;23.404;2023-03-09T07:02:02;94968.47;;;7.54;100.00
11676;BME280;5894;42.768;23.404;2023-03-09T07:04:29;94964.94;;;7.58;100.00
11676;BME280;5894;42.768;23.404;2023-03-09T07:06:58;94965.13;;;7.62;100.00
11676;BME280;5894;42.768;23.404;2023-03-09T07:09:25;94927.34;;;7.49;100.00
11676;BME280;5894;42.768;23.404;2023-03-09T07:11:52;94952.44;;;7.78;100.00
11676;BME280;5894;42.768;23.404;2023-03-09T07:14:20;94984.94;;;7.90;100.00
11676;BME280;5894;42.768;23.404;2023-03-09T07:16:50;94973.84;;;7.93;100.00
11676;BME280;5894;42.768;23.404;2023-03-09T07:19:19;94926.00;;;7.74;100.00
11676;BME280;5894;42.768;23.404;2023-03-09T07:21:45;94975.13;;;8.18;100.00
11676;BME280;5894;42.768;23.404;2023-03-09T07:24:13;94978.94;;;8.34;100.00
11676;BME280;5894;42.768;23.404;2023-03-09T07:26:40;94980.53;;;8.44;100.00
11676;BME280;5894;42.768;23.404;2023-03-09T07:29:07;94973.84;;;8.60;100.00
11676;BME280;5894;42.768;23.404;2023-03-09T07:31:34;94968.91;;;8.67;100.00
11676;BME280;5894;42.768;23.404;2023-03-09T07:34:01;94971.53;;;8.67;100.00
11676;BME280;5894;42.768;23.404;2023-03-09T07:36:29;94976.06;;;8.84;100.00
11676;BME280;5894;42.768;23.404;2023-03-09T07:38:56;94978.25;;;8.82;100.00
11676;BME280;5894;42.768;23.404;2023-03-09T07:41:23;94977.22;;;9.00;100.00
11676;BME280;5894;42.768;23.404;2023-03-09T07:43:49;94979.72;;;9.14;100.00
11676;BME280;5894;42.768;23.404;2023-03-09T07:46:24;94969.69;;;9.16;100.00
11676;BME280;5894;42.768;23.404;2023-03-09T07:48:51;94971.28;;;9.34;100.00
11676;BME280;5894;42.768;23.404;2023-03-09T07:51:18;94953.00;;;9.29;100.00
11676;BME280;5894;42.768;23.404;2023-03-09T07:53:48;94902.81;;;9.08;100.00
11676;BME280;5894;42.768;23.404;2023-03-09T07:56:15;94978.28;;;9.73;99.03
11676;BME280;5894;42.768;23.404;2023-03-09T07:58:42;94966.97;;;9.81;95.06
11676;BME280;5894;42.768;23.404;2023-03-09T08:01:15;94913.41;;;9.60;96.55
11676;BME280;5894;42.768;23.404;2023-03-09T08:03:42;94973.47;;;10.10;96.90
11676;BME280;5894;42.768;23.404;2023-03-09T08:06:09;94965.41;;;10.23;95.91
11676;BME280;5894;42.768;23.404;2023-03-09T08:08:36;94967.09;;;10.37;93.66
11676;BME280;5894;42.768;23.404;2023-03-09T08:11:05;94971.41;;;10.50;94.00
11676;BME280;5894;42.768;23.404;2023-03-09T08:13:32;94924.63;;;10.29;92.10
11676;BME280;5894;42.768;23.404;2023-03-09T08:16:01;94936.94;;;10.63;90.78
11676;BME280;5894;42.768;23.404;2023-03-09T08:18:28;94947.88;;;10.83;88.78
11676;BME280;5894;42.768;23.404;2023-03-09T08:21:02;94953.25;;;10.95;89.86
11676;BME280;5894;42.768;23.404;2023-03-09T08:23:29;94914.03;;;10.85;89.81
11676;BME280;5894;42.768;23.404;2023-03-09T08:25:56;94956.66;;;11.25;90.01
11676;BME280;5894;42.768;23.404;2023-03-09T08:28:24;94957.84;;;11.36;88.63
11676;BME280;5894;42.768;23.404;2023-03-09T08:30:51;94893.53;;;11.11;88.05
11676;BME280;5894;42.768;23.404;2023-03-09T08:33:18;94896.72;;;11.25;85.04
11676;BME280;5894;42.768;23.404;2023-03-09T08:35:45;94943.75;;;11.73;83.26
11676;BME280;5894;42.768;23.404;2023-03-09T08:38:11;94940.78;;;11.96;79.55
11676;BME280;5894;42.768;23.404;2023-03-09T08:40:38;94937.56;;;12.11;78.87
11676;BME280;5894;42.768;23.404;2023-03-09T08:43:06;94947.94;;;12.28;77.29
11676;BME280;5894;42.768;23.404;2023-03-09T08:45:34;94916.31;;;12.20;78.49
11676;BME280;5894;42.768;23.404;2023-03-09T08:48:01;94944.28;;;12.54;75.00
11676;BME280;5894;42.768;23.404;2023-03-09T08:50:28;94943.28;;;12.58;74.61
11676;BME280;5894;42.768;23.404;2023-03-09T08:52:54;94918.50;;;12.63;74.57
11676;BME280;5894;42.768;23.404;2023-03-09T08:55:21;94931.19;;;12.81;74.57
11676;BME280;5894;42.768;23.404;2023-03-09T08:57:48;94902.66;;;12.75;72.56
11676;BME280;5894;42.768;23.404;2023-03-09T09:00:17;94919.84;;;13.05;68.25
11676;BME280;5894;42.768;23.404;2023-03-09T09:02:45;94838.13;;;12.67;67.06
11676;BME280;5894;42.768;23.404;2023-03-09T09:05:12;94923.16;;;13.39;68.75
11676;BME280;5894;42.768;23.404;2023-03-09T09:07:39;94927.28;;;13.52;67.18
11676;BME280;5894;42.768;23.404;2023-03-09T09:10:06;94917.00;;;13.63;65.94
11676;BME280;5894;42.768;23.404;2023-03-09T09:12:34;94835.56;;;13.19;65.19
11676;BME280;5894;42.768;23.404;2023-03-09T09:15:04;94907.16;;;13.75;66.06
11676;BME280;5894;42.768;23.404;2023-03-09T09:17:30;94891.06;;;13.68;66.21
11676;BME280;5894;42.768;23.404;2023-03-09T09:19:59;94894.38;;;13.93;66.58
11676;BME280;5894;42.768;23.404;2023-03-09T09:22:25;94887.13;;;14.06;66.79
11676;BME280;5894;42.768;23.404;2023-03-09T09:24:52;94889.19;;;14.12;66.82
11676;BME280;5894;42.768;23.404;2023-03-09T09:27:19;94884.16;;;14.23;65.40
11676;BME280;5894;42.768;23.404;2023-03-09T09:29:46;94889.50;;;14.39;63.12
11676;BME280;5894;42.768;23.404;2023-03-09T09:32:13;94875.47;;;14.38;61.55
11676;BME280;5894;42.768;23.404;2023-03-09T09:34:40;94877.31;;;14.50;61.10
11676;BME280;5894;42.768;23.404;2023-03-09T09:37:08;94870.97;;;14.54;61.29
11676;BME280;5894;42.768;23.404;2023-03-09T09:39:38;94827.47;;;14.27;61.90
11676;BME280;5894;42.768;23.404;2023-03-09T09:42:09;94868.41;;;14.58;62.88
11676;BME280;5894;42.768;23.404;2023-03-09T09:44:41;94865.31;;;14.56;62.48
11676;BME280;5894;42.768;23.404;2023-03-09T09:47:14;94838.56;;;14.33;61.80
11676;BME280;5894;42.768;23.404;2023-03-09T09:49:45;94868.56;;;14.65;61.58
11676;BME280;5894;42.768;23.404;2023-03-09T09:52:29;94869.44;;;14.69;61.18
11676;BME280;5894;42.768;23.404;2023-03-09T09:55:01;94864.88;;;14.69;63.33
11676;BME280;5894;42.768;23.404;2023-03-09T09:57:38;94861.28;;;14.78;62.86
11676;BME280;5894;42.768;23.404;2023-03-09T10:00:12;94846.41;;;14.73;63.34
11676;BME280;5894;42.768;23.404;2023-03-09T10:02:52;94798.50;;;14.50;63.65
11676;BME280;5894;42.768;23.404;2023-03-09T10:05:26;94821.81;;;14.76;61.65
11676;BME280;5894;42.768;23.404;2023-03-09T10:08:15;94826.09;;;14.81;62.83
11676;BME280;5894;42.768;23.404;2023-03-09T10:10:47;94833.09;;;14.89;61.78
11676;BME280;5894;42.768;23.404;2023-03-09T10:13:18;94829.00;;;14.91;62.44
11676;BME280;5894;42.768;23.404;2023-03-09T10:15:47;94827.94;;;14.96;63.60
11676;BME280;5894;42.768;23.404;2023-03-09T10:18:16;94817.50;;;15.03;62.33
11676;BME280;5894;42.768;23.404;2023-03-09T10:20:49;94800.63;;;14.95;62.84
11676;BME280;5894;42.768;23.404;2023-03-09T10:23:22;94811.13;;;15.07;63.22
11676;BME280;5894;42.768;23.404;2023-03-09T10:25:52;94801.63;;;15.06;61.49
11676;BME280;5894;42.768;23.404;2023-03-09T10:28:24;94759.13;;;14.87;61.38
11676;BME280;5894;42.768;23.404;2023-03-09T10:30:56;94791.50;;;15.12;61.23
11676;BME280;5894;42.768;23.404;2023-03-09T10:33:32;94784.31;;;15.13;61.75
11676;BME280;5894;42.768;23.404;2023-03-09T10:36:06;94784.38;;;15.16;62.53
11676;BME280;5894;42.768;23.404;2023-03-09T10:38:38;94786.41;;;15.23;62.35
11676;BME280;5894;42.768;23.404;2023-03-09T10:41:13;94755.78;;;15.10;62.41
11676;BME280;5894;42.768;23.404;2023-03-09T10:43:40;94669.53;;;14.65;62.61
11676;BME280;5894;42.768;23.404;2023-03-09T10:46:12;94760.88;;;15.37;62.09
11676;BME280;5894;42.768;23.404;2023-03-09T10:48:40;94762.69;;;15.53;60.85
11676;BME280;5894;42.768;23.404;2023-03-09T10:51:20;94743.31;;;15.52;60.15
11676;BME280;5894;42.768;23.404;2023-03-09T10:53:51;94743.47;;;15.59;60.19
11676;BME280;5894;42.768;23.404;2023-03-09T10:56:21;94749.88;;;15.55;60.06
11676;BME280;5894;42.768;23.404;2023-03-09T10:59:07;94737.88;;;15.64;60.46
11676;BME280;5894;42.768;23.404;2023-03-09T11:01:36;94741.16;;;15.77;60.33
11676;BME280;5894;42.768;23.404;2023-03-09T11:04:27;94731.63;;;15.76;59.79
11676;BME280;5894;42.768;23.404;2023-03-09T11:06:55;94733.06;;;15.93;59.40
11676;BME280;5894;42.768;23.404;2023-03-09T11:09:29;94724.91;;;16.05;59.15
11676;BME280;5894;42.768;23.404;2023-03-09T11:12:15;94711.94;;;16.03;59.08
11676;BME280;5894;42.768;23.404;2023-03-09T11:14:45;94712.56;;;16.20;57.08
11676;BME280;5894;42.768;23.404;2023-03-09T11:17:27;94683.88;;;16.06;58.66
11676;BME280;5894;42.768;23.404;2023-03-09T11:20:29;94703.63;;;16.31;57.14
11676;BME280;5894;42.768;23.404;2023-03-09T11:23:25;94638.97;;;16.01;56.75
11676;BME280;5894;42.768;23.404;2023-03-09T11:26:03;94695.09;;;16.45;57.23
11676;BME280;5894;42.768;23.404;2023-03-09T11:28:47;94685.22;;;16.45;57.00
11676;BME280;5894;42.768;23.404;2023-03-09T11:31:19;94668.53;;;16.48;56.72
11676;BME280;5894;42.768;23.404;2023-03-09T11:33:48;94677.22;;;16.72;56.07
11676;BME280;5894;42.768;23.404;2023-03-09T11:36:19;94663.25;;;16.78;55.19
11676;BME280;5894;42.768;23.404;2023-03-09T11:38:47;94671.81;;;16.95;54.66
11676;BME280;5894;42.768;23.404;2023-03-09T11:41:20;94668.84;;;17.00;53.75
11676;BME280;5894;42.768;23.404;2023-03-09T11:43:50;94664.28;;;17.04;54.62
11676;BME280;5894;42.768;23.404;2023-03-09T11:46:19;94656.41;;;17.11;53.92
11676;BME280;5894;42.768;23.404;2023-03-09T11:48:49;94651.44;;;17.09;53.52
11676;BME280;5894;42.768;23.404;2023-03-09T11:51:19;94613.19;;;16.91;53.53
11676;BME280;5894;42.768;23.404;2023-03-09T11:53:53;94630.53;;;17.11;53.71
11676;BME280;5894;42.768;23.404;2023-03-09T11:56:25;94637.41;;;17.16;54.86
11676;BME280;5894;42.768;23.404;2023-03-09T11:58:59;94603.84;;;17.08;54.13
11676;BME280;5894;42.768;23.404;2023-03-09T12:01:34;94620.47;;;17.31;54.67
11676;BME280;5894;42.768;23.404;2023-03-09T12:04:03;94527.84;;;16.77;53.90
11676;BME280;5894;42.768;23.404;2023-03-09T12:06:47;94620.97;;;17.44;52.21
11676;BME280;5894;42.768;23.404;2023-03-09T12:09:28;94615.72;;;17.54;53.82
11676;BME280;5894;42.768;23.404;2023-03-09T12:12:01;94601.63;;;17.54;53.03
11676;BME280;5894;42.768;23.404;2023-03-09T12:14:33;94604.41;;;17.65;51.56
11676;BME280;5894;42.768;23.404;2023-03-09T12:17:06;94589.81;;;17.55;51.87
11676;BME280;5894;42.768;23.404;2023-03-09T12:19:44;94597.63;;;17.78;51.20
11676;BME280;5894;42.768;23.404;2023-03-09T12:22:15;94588.13;;;17.80;51.87
11676;BME280;5894;42.768;23.404;2023-03-09T12:24:44;94574.03;;;17.80;50.61
11676;BME280;5894;42.768;23.404;2023-03-09T12:27:18;94581.38;;;17.93;50.46
11676;BME280;5894;42.768;23.404;2023-03-09T12:29:47;94581.78;;;17.99;50.61
11676;BME280;5894;42.768;23.404;2023-03-09T12:35:12;94547.84;;;17.92;50.61
11676;BME280;5894;42.768;23.404;2023-03-09T12:37:51;94557.44;;;18.04;49.90
11676;BME280;5894;42.768;23.404;2023-03-09T12:40:29;94574.28;;;18.19;49.99
11676;BME280;5894;42.768;23.404;2023-03-09T12:49:27;94565.97;;;18.31;48.83
11676;BME280;5894;42.768;23.404;2023-03-09T12:52:32;94568.69;;;18.45;49.06
11676;BME280;5894;42.768;23.404;2023-03-09T12:55:09;94566.38;;;18.40;49.11
11676;BME280;5894;42.768;23.404;2023-03-09T12:57:38;94574.44;;;18.47;49.28
11676;BME280;5894;42.768;23.404;2023-03-09T13:00:18;94566.78;;;18.49;48.97
11676;BME280;5894;42.768;23.404;2023-03-09T13:02:49;94547.31;;;18.34;49.16
11676;BME280;5894;42.768;23.404;2023-03-09T13:05:23;94554.59;;;18.45;49.46
11676;BME280;5894;42.768;23.404;2023-03-09T13:07:53;94554.22;;;18.46;49.31
11676;BME280;5894;42.768;23.404;2023-03-09T13:10:27;94541.59;;;18.40;49.00
11676;BME280;5894;42.768;23.404;2023-03-09T13:12:55;94550.78;;;18.46;48.83
11676;BME280;5894;42.768;23.404;2023-03-09T13:15:24;94515.19;;;18.20;48.72
11676;BME280;5894;42.768;23.404;2023-03-09T13:18:23;94544.25;;;18.36;48.86
11676;BME280;5894;42.768;23.404;2023-03-09T13:20:53;94536.25;;;18.40;48.81
11676;BME280;5894;42.768;23.404;2023-03-09T13:23:20;94528.59;;;18.38;48.67
11676;BME280;5894;42.768;23.404;2023-03-09T13:25:50;94530.91;;;18.40;49.46
11676;BME280;5894;42.768;23.404;2023-03-09T13:28:29;94538.16;;;18.36;48.82